サンホセ/フアン・サンタ・マリア の空港の天気 - METARとTAF

フアン・サンタ・マリア国際空港 ( MROC / SJO ) - コスタリカ サンホセ
飛行場実況気象(Metar)
観測時間04/26 22:00 CST (04/27 04:00 UTC)
風向・風速不定 1m/s
視程10km以上
天気現象
少しの雲 雲底高度 300m
全天の4割程度の雲 雲底高度 910m
気温21℃
湿度94%
気圧1017hPa
METARMROC 270400Z VRB02KT 9999 FEW010 SCT030 21/20 A3003 NOSIG
過去の天気等 Google飛行場航空写真 Wunderground天気予報

過去48時間のMETAR

飛行場予報(TAF)
発表時間: 4/26 17:00 CST (4/26 23:00 UTC)
予報対象時間: 26日18時 CST ~ 27日18時 CST
風向・風速東 5m/s
視程10km以上
少しの雲 雲底高度 1,070m
26日18時 CST ~ 26日21時 CST に一時的に
風向・風速不定 1m/s
天気現象
全天の8割程度の雲 雲底高度 910m
27日10時 CST ~ 27日12時 CST に徐々に
風向・風速西南西 4m/s
26日14時 CST ~ 26日17時 CST に一時的に
視程5,000m
天気現象雷雨
全天の4割程度の積乱雲 雲底高度 460m
全天の8割程度の雲 雲底高度 760m
MROC 262300Z 2700/2724 10010KT 9999 FEW035
TEMPO 2700/2703 VRB02KT RA BKN030 TX30/2719Z TN19/2709Z
BECMG 2716/2718 24008KT
TEMPO 2620/2623 5000 TSRA SCT015CB BKN025